Time;durP1;ratioP1;P1;durP2;ratioP2;P2;SDS_P1;SDS_P2;PMS_P1;PMS_P2;Temp;Humidity;BMP_temperature;BMP_pressure;BME280_temperature;BME280_humidity;BME280_pressure;Samples;Min_cycle;Max_cycle;Signal;HPM_P1;HPM_P2
2023/07/07 00:00:55;;;;;;;56.87;2.40;;;;;;;;;;5032830;28;20459;-69
2023/07/07 00:03:22;;;;;;;57.00;2.30;;;;;;;;;;5032319;28;20938;-69
2023/07/07 00:05:50;;;;;;;57.13;2.37;;;;;;;;;;5032049;28;20452;-70
2023/07/07 00:08:17;;;;;;;57.10;2.40;;;;;;;;;;5031702;28;20485;-69
2023/07/07 00:10:44;;;;;;;57.70;2.90;;;;;;;;;;5032502;28;20503;-69
2023/07/07 00:13:12;;;;;;;57.03;2.33;;;;;;;;;;5032376;28;20445;-69
2023/07/07 00:15:43;;;;;;;57.20;2.50;;;;;;;;;;5031918;28;20456;-69
2023/07/07 00:18:10;;;;;;;57.03;2.67;;;;;;;;;;5032117;28;20900;-69
2023/07/07 00:20:37;;;;;;;57.70;3.27;;;;;;;;;;5031908;28;20481;-69
2023/07/07 00:23:06;;;;;;;57.10;2.40;;;;;;;;;;5032198;28;20821;-69
2023/07/07 00:25:33;;;;;;;56.80;2.40;;;;;;;;;;5031668;28;20512;-69
2023/07/07 00:28:00;;;;;;;57.03;2.30;;;;;;;;;;5031945;28;20465;-69
2023/07/07 00:30:27;;;;;;;56.87;2.47;;;;;;;;;;5031908;28;20453;-69
2023/07/07 00:32:54;;;;;;;56.90;2.70;;;;;;;;;;5031870;28;20825;-69
2023/07/07 00:35:21;;;;;;;57.27;2.63;;;;;;;;;;5031379;28;20468;-69
2023/07/07 00:37:48;;;;;;;57.00;2.10;;;;;;;;;;5031953;28;20477;-69
2023/07/07 00:40:19;;;;;;;56.70;2.30;;;;;;;;;;5032167;28;20489;-69
2023/07/07 00:42:46;;;;;;;56.93;2.47;;;;;;;;;;5031844;28;20969;-69
2023/07/07 00:45:15;;;;;;;57.00;2.40;;;;;;;;;;5031437;28;20821;-69
2023/07/07 00:47:45;;;;;;;57.20;2.40;;;;;;;;;;5031360;28;20472;-69
2023/07/07 00:50:14;;;;;;;57.20;2.70;;;;;;;;;;5031863;28;20442;-69
2023/07/07 00:52:43;;;;;;;57.07;2.23;;;;;;;;;;5031936;28;20457;-69
2023/07/07 00:55:13;;;;;;;56.77;2.10;;;;;;;;;;5031373;28;20495;-69
2023/07/07 00:57:42;;;;;;;58.80;2.33;;;;;;;;;;5031392;28;20469;-69
2023/07/07 01:00:10;;;;;;;56.83;1.90;;;;;;;;;;5031327;28;20992;-69
2023/07/07 01:02:37;;;;;;;57.27;3.10;;;;;;;;;;5031677;28;20453;-69
2023/07/07 01:05:04;;;;;;;56.83;2.20;;;;;;;;;;5031520;28;20445;-69
2023/07/07 01:07:33;;;;;;;57.10;2.60;;;;;;;;;;5031408;28;20518;-69
2023/07/07 01:10:00;;;;;;;56.93;2.33;;;;;;;;;;5031429;28;20442;-69
2023/07/07 01:12:27;;;;;;;57.30;2.50;;;;;;;;;;5031238;28;20447;-69
2023/07/07 01:14:56;;;;;;;56.97;2.13;;;;;;;;;;5031034;28;20448;-69
2023/07/07 01:17:28;;;;;;;57.17;2.50;;;;;;;;;;5029290;28;20461;-69
2023/07/07 01:20:07;;;;;;;56.90;2.30;;;;;;;;;;5030667;28;20580;-69
2023/07/07 01:22:54;;;;;;;57.20;2.73;;;;;;;;;;5030462;28;20457;-69
2023/07/07 01:25:25;;;;;;;57.30;2.30;;;;;;;;;;5025133;28;20460;-69
2023/07/07 01:28:02;;;;;;;57.40;3.20;;;;;;;;;;5030668;28;21007;-68
2023/07/07 01:30:43;;;;;;;57.10;2.40;;;;;;;;;;5031177;28;20458;-68
2023/07/07 01:33:12;;;;;;;57.07;2.27;;;;;;;;;;5031150;28;20453;-69
2023/07/07 01:35:39;;;;;;;57.07;2.50;;;;;;;;;;5030694;28;20445;-69
2023/07/07 01:38:07;;;;;;;57.70;2.80;;;;;;;;;;5030880;28;20472;-69
2023/07/07 01:40:38;;;;;;;57.90;3.13;;;;;;;;;;5030831;28;20830;-69
2023/07/07 01:43:08;;;;;;;58.23;3.53;;;;;;;;;;5031247;28;20452;-69
2023/07/07 01:45:38;;;;;;;58.20;2.50;;;;;;;;;;5030491;28;21088;-69
2023/07/07 01:48:13;;;;;;;57.03;2.37;;;;;;;;;;5011328;28;20474;-69
2023/07/07 01:50:41;;;;;;;57.30;2.60;;;;;;;;;;5011328;28;20449;-69
2023/07/07 01:53:10;;;;;;;57.23;2.57;;;;;;;;;;5011257;28;20452;-69
2023/07/07 01:55:39;;;;;;;56.77;2.33;;;;;;;;;;5010727;28;20461;-69
2023/07/07 01:58:08;;;;;;;57.50;2.70;;;;;;;;;;5011286;28;20488;-68
2023/07/07 02:00:35;;;;;;;56.87;2.33;;;;;;;;;;5010925;28;21041;-68
2023/07/07 02:03:02;;;;;;;57.40;3.37;;;;;;;;;;5011004;28;20460;-69
2023/07/07 02:05:31;;;;;;;58.00;3.00;;;;;;;;;;5010615;28;20460;-69
2023/07/07 02:07:58;;;;;;;57.10;2.30;;;;;;;;;;5010851;28;20982;-70
2023/07/07 02:10:25;;;;;;;57.20;2.33;;;;;;;;;;5011098;28;20454;-69
2023/07/07 02:12:52;;;;;;;59.10;5.03;;;;;;;;;;5011015;28;20457;-69
2023/07/07 02:15:19;;;;;;;57.20;2.40;;;;;;;;;;5010565;28;20919;-69
2023/07/07 02:17:47;;;;;;;57.03;2.50;;;;;;;;;;5010762;28;20470;-69
2023/07/07 02:20:14;;;;;;;57.17;2.50;;;;;;;;;;5011015;28;20485;-69
2023/07/07 02:22:43;;;;;;;56.93;2.30;;;;;;;;;;5011001;28;20540;-69
2023/07/07 02:25:10;;;;;;;57.20;2.50;;;;;;;;;;5010656;28;20541;-69
2023/07/07 02:27:37;;;;;;;57.17;2.30;;;;;;;;;;5010627;28;20994;-69
2023/07/07 02:30:05;;;;;;;57.07;2.40;;;;;;;;;;5011221;28;20458;-69
2023/07/07 02:32:32;;;;;;;57.10;2.73;;;;;;;;;;5013990;28;20452;-69
2023/07/07 02:34:59;;;;;;;56.90;2.27;;;;;;;;;;5014241;28;20458;-69
2023/07/07 02:37:26;;;;;;;57.20;2.50;;;;;;;;;;5014256;28;20469;-69
2023/07/07 02:39:55;;;;;;;57.60;3.03;;;;;;;;;;5014321;28;20481;-69
2023/07/07 02:42:23;;;;;;;57.10;2.60;;;;;;;;;;5014143;28;20446;-69
2023/07/07 02:44:50;;;;;;;56.87;2.70;;;;;;;;;;5014070;28;20553;-69
2023/07/07 02:47:17;;;;;;;57.40;2.70;;;;;;;;;;5013741;28;20470;-68
2023/07/07 02:49:44;;;;;;;57.40;3.17;;;;;;;;;;5014227;28;20450;-69
2023/07/07 02:52:11;;;;;;;57.10;2.43;;;;;;;;;;5014075;28;20446;-69
2023/07/07 02:54:38;;;;;;;57.10;2.27;;;;;;;;;;5014136;28;20450;-68
2023/07/07 02:57:07;;;;;;;57.27;2.17;;;;;;;;;;5013748;28;20978;-69
2023/07/07 02:59:35;;;;;;;57.10;2.27;;;;;;;;;;5013693;28;20993;-69
2023/07/07 03:02:02;;;;;;;57.17;2.60;;;;;;;;;;5013988;28;20446;-69
2023/07/07 03:04:29;;;;;;;57.03;2.70;;;;;;;;;;5014060;28;20446;-68
2023/07/07 03:06:56;;;;;;;56.97;2.53;;;;;;;;;;5013610;28;20474;-68
2023/07/07 03:09:23;;;;;;;57.50;2.27;;;;;;;;;;5013587;28;20462;-69
2023/07/07 03:11:50;;;;;;;57.40;2.60;;;;;;;;;;5013701;28;20446;-69
2023/07/07 03:14:20;;;;;;;57.20;2.40;;;;;;;;;;5013786;28;20453;-68
2023/07/07 03:16:51;;;;;;;57.83;2.60;;;;;;;;;;5013426;28;20470;-69
2023/07/07 03:19:19;;;;;;;56.93;2.57;;;;;;;;;;5013551;28;20532;-68
2023/07/07 03:21:46;;;;;;;57.00;2.40;;;;;;;;;;5013668;28;20450;-69
2023/07/07 03:24:15;;;;;;;57.13;2.33;;;;;;;;;;5028019;28;20458;-69
2023/07/07 03:26:42;;;;;;;57.53;2.60;;;;;;;;;;5032537;28;20469;-69
2023/07/07 03:29:09;;;;;;;57.00;2.23;;;;;;;;;;5032934;28;20466;-69
2023/07/07 03:31:38;;;;;;;57.17;2.40;;;;;;;;;;5033095;28;20798;-69
2023/07/07 03:34:07;;;;;;;57.03;2.50;;;;;;;;;;5016787;28;20453;-68
2023/07/07 03:36:35;;;;;;;57.07;2.30;;;;;;;;;;5032694;28;20888;-69
2023/07/07 03:39:02;;;;;;;56.77;2.37;;;;;;;;;;5033017;28;20449;-69
2023/07/07 03:41:30;;;;;;;56.97;2.20;;;;;;;;;;5032838;28;20492;-69
2023/07/07 03:43:58;;;;;;;57.07;2.60;;;;;;;;;;5032073;28;20456;-69
2023/07/07 03:46:26;;;;;;;57.30;2.50;;;;;;;;;;5032770;28;20469;-69
2023/07/07 03:48:55;;;;;;;57.10;2.43;;;;;;;;;;5032756;28;20445;-68
2023/07/07 03:51:23;;;;;;;57.17;2.13;;;;;;;;;;5032699;28;20449;-69
2023/07/07 03:53:51;;;;;;;57.23;2.80;;;;;;;;;;5032466;28;20449;-68
2023/07/07 03:56:18;;;;;;;57.17;2.50;;;;;;;;;;5032285;28;20492;-69
2023/07/07 03:58:45;;;;;;;57.10;2.30;;;;;;;;;;5032373;28;20459;-69
2023/07/07 04:01:13;;;;;;;56.90;2.40;;;;;;;;;;5032521;28;20485;-69
2023/07/07 04:03:41;;;;;;;57.20;2.60;;;;;;;;;;5032527;28;20915;-68
2023/07/07 04:06:10;;;;;;;56.90;2.50;;;;;;;;;;5031935;28;20463;-68
2023/07/07 04:08:37;;;;;;;56.97;2.40;;;;;;;;;;5032332;28;20846;-66
2023/07/07 04:11:06;;;;;;;57.17;2.60;;;;;;;;;;5032556;28;20461;-67
2023/07/07 04:13:34;;;;;;;56.97;2.30;;;;;;;;;;5032328;28;20840;-67
2023/07/07 04:16:02;;;;;;;57.13;2.40;;;;;;;;;;5031796;28;20453;-69
2023/07/07 04:18:31;;;;;;;57.50;2.70;;;;;;;;;;5032274;28;20449;-68
2023/07/07 04:20:59;;;;;;;57.00;2.23;;;;;;;;;;5032019;28;20547;-69
2023/07/07 04:23:28;;;;;;;57.10;2.57;;;;;;;;;;5032240;28;20444;-68
2023/07/07 04:25:55;;;;;;;57.27;2.43;;;;;;;;;;5031774;28;20459;-68
2023/07/07 04:28:22;;;;;;;56.97;2.50;;;;;;;;;;5032057;28;20473;-69
2023/07/07 04:30:53;;;;;;;57.00;2.80;;;;;;;;;;5031896;28;20861;-68
2023/07/07 04:33:20;;;;;;;56.87;2.37;;;;;;;;;;5031737;28;20449;-69
2023/07/07 04:35:51;;;;;;;57.20;2.70;;;;;;;;;;5031778;28;20457;-69
2023/07/07 04:38:20;;;;;;;57.60;3.23;;;;;;;;;;5032103;28;20997;-69
2023/07/07 04:40:48;;;;;;;59.30;2.77;;;;;;;;;;5031785;28;20539;-69
2023/07/07 04:43:16;;;;;;;57.00;2.40;;;;;;;;;;5031753;28;20452;-69
2023/07/07 04:45:46;;;;;;;57.27;2.83;;;;;;;;;;5031475;28;20895;-69
2023/07/07 04:48:14;;;;;;;57.97;3.40;;;;;;;;;;5031544;28;20460;-69
2023/07/07 04:50:41;;;;;;;56.87;2.40;;;;;;;;;;5031778;28;20456;-69
2023/07/07 04:53:08;;;;;;;57.00;2.30;;;;;;;;;;5031600;28;20446;-69
2023/07/07 04:55:40;;;;;;;56.80;2.20;;;;;;;;;;5030396;28;20453;-69
2023/07/07 04:58:08;;;;;;;56.97;2.60;;;;;;;;;;5031419;28;20465;-69
2023/07/07 05:00:35;;;;;;;56.87;2.63;;;;;;;;;;5031224;28;20489;-69
2023/07/07 05:03:03;;;;;;;57.20;2.60;;;;;;;;;;5031522;28;20455;-69
2023/07/07 05:05:30;;;;;;;56.97;2.50;;;;;;;;;;5031074;28;20488;-69
2023/07/07 05:07:57;;;;;;;56.63;2.17;;;;;;;;;;5031154;28;20485;-69
2023/07/07 05:10:24;;;;;;;56.87;2.57;;;;;;;;;;5031236;28;20536;-69
2023/07/07 05:12:51;;;;;;;57.30;2.40;;;;;;;;;;5031249;28;20828;-69
2023/07/07 05:15:20;;;;;;;56.87;2.50;;;;;;;;;;5031438;28;20449;-69
2023/07/07 05:17:47;;;;;;;56.97;2.30;;;;;;;;;;5031206;28;20477;-68
2023/07/07 05:20:14;;;;;;;56.80;2.20;;;;;;;;;;5031140;28;20468;-69
2023/07/07 05:22:41;;;;;;;56.90;2.20;;;;;;;;;;5031191;28;20471;-68
2023/07/07 05:25:08;;;;;;;56.67;2.23;;;;;;;;;;5030129;28;20457;-69
2023/07/07 05:27:35;;;;;;;56.77;2.30;;;;;;;;;;5030690;28;21024;-68
2023/07/07 05:30:03;;;;;;;57.10;3.03;;;;;;;;;;5025827;28;20460;-69
2023/07/07 05:32:31;;;;;;;56.47;2.30;;;;;;;;;;5031100;28;20472;-69
2023/07/07 05:34:58;;;;;;;57.40;3.17;;;;;;;;;;5030872;28;20526;-69
2023/07/07 05:37:26;;;;;;;56.60;2.27;;;;;;;;;;5030727;28;20475;-69
2023/07/07 05:39:53;;;;;;;57.00;2.73;;;;;;;;;;5030934;28;20973;-69
2023/07/07 05:42:20;;;;;;;57.87;2.40;;;;;;;;;;5030903;28;20485;-69
2023/07/07 05:44:47;;;;;;;57.10;2.63;;;;;;;;;;5031109;28;20445;-69
2023/07/07 05:47:14;;;;;;;56.53;2.50;;;;;;;;;;5030668;28;20465;-69
2023/07/07 05:49:43;;;;;;;57.00;2.77;;;;;;;;;;5031014;28;20457;-69
2023/07/07 05:52:10;;;;;;;57.20;2.50;;;;;;;;;;5030990;28;20445;-69
2023/07/07 05:54:37;;;;;;;58.90;2.70;;;;;;;;;;5030748;28;20485;-68
2023/07/07 05:57:04;;;;;;;56.73;2.20;;;;;;;;;;5030521;28;20833;-69
2023/07/07 05:59:32;;;;;;;56.77;2.30;;;;;;;;;;5030726;28;20449;-68
2023/07/07 06:01:59;;;;;;;56.83;2.67;;;;;;;;;;5030803;28;20485;-68
2023/07/07 06:04:26;;;;;;;58.60;2.90;;;;;;;;;;5031047;28;20445;-69
2023/07/07 06:06:54;;;;;;;56.70;2.30;;;;;;;;;;5033014;28;20522;-69
2023/07/07 06:09:21;;;;;;;56.70;2.17;;;;;;;;;;5034443;28;20471;-69
2023/07/07 06:11:49;;;;;;;57.40;3.47;;;;;;;;;;5034718;28;20445;-69
2023/07/07 06:14:16;;;;;;;56.77;2.67;;;;;;;;;;5034567;28;20457;-69
2023/07/07 06:16:44;;;;;;;56.80;2.60;;;;;;;;;;5034104;28;20838;-69
2023/07/07 06:19:11;;;;;;;56.87;2.20;;;;;;;;;;5034793;28;20488;-69
2023/07/07 06:21:38;;;;;;;56.93;2.50;;;;;;;;;;5034390;28;20483;-69
2023/07/07 06:24:06;;;;;;;56.63;2.20;;;;;;;;;;5034575;28;20453;-69
2023/07/07 06:26:34;;;;;;;57.30;2.53;;;;;;;;;;5033922;28;20469;-69
2023/07/07 06:29:01;;;;;;;57.73;3.13;;;;;;;;;;5034565;28;20467;-69
2023/07/07 06:31:28;;;;;;;57.10;2.83;;;;;;;;;;5034405;28;20441;-69
2023/07/07 06:33:55;;;;;;;56.90;2.30;;;;;;;;;;5034144;28;20488;-69
2023/07/07 06:36:23;;;;;;;56.90;2.67;;;;;;;;;;5033715;28;21000;-68
2023/07/07 06:38:50;;;;;;;56.70;2.33;;;;;;;;;;5034234;28;20820;-68
2023/07/07 06:41:21;;;;;;;57.20;2.57;;;;;;;;;;5034427;28;20512;-67
2023/07/07 06:43:49;;;;;;;57.47;2.80;;;;;;;;;;5034143;28;20460;-67
2023/07/07 06:46:16;;;;;;;57.17;2.50;;;;;;;;;;5032200;28;20462;-69
2023/07/07 06:48:43;;;;;;;56.67;2.17;;;;;;;;;;5033902;28;20456;-69
2023/07/07 06:51:11;;;;;;;56.73;2.23;;;;;;;;;;5033852;28;20441;-69
2023/07/07 06:53:38;;;;;;;58.70;3.60;;;;;;;;;;5033882;28;20457;-69
2023/07/07 06:56:05;;;;;;;56.73;2.23;;;;;;;;;;5033640;28;20441;-69
2023/07/07 06:58:34;;;;;;;56.77;2.33;;;;;;;;;;5033947;28;20451;-69
2023/07/07 07:01:01;;;;;;;57.00;2.33;;;;;;;;;;5033634;28;20476;-69
2023/07/07 07:03:28;;;;;;;56.43;2.20;;;;;;;;;;5033735;28;20734;-69
2023/07/07 07:05:55;;;;;;;56.73;2.13;;;;;;;;;;5033390;28;20506;-69
2023/07/07 07:08:22;;;;;;;56.77;2.30;;;;;;;;;;5033521;28;20485;-69
2023/07/07 07:10:49;;;;;;;56.47;2.20;;;;;;;;;;5033585;28;20460;-69
2023/07/07 07:13:17;;;;;;;57.00;2.50;;;;;;;;;;5033348;28;20963;-69
2023/07/07 07:15:45;;;;;;;57.30;3.07;;;;;;;;;;5033143;28;20453;-69
2023/07/07 07:18:13;;;;;;;57.03;3.10;;;;;;;;;;5032082;28;20981;-69
2023/07/07 07:20:40;;;;;;;56.77;2.40;;;;;;;;;;5033469;28;20449;-69
2023/07/07 07:23:07;;;;;;;57.13;2.67;;;;;;;;;;5033479;28;20476;-69
2023/07/07 07:25:34;;;;;;;56.80;2.03;;;;;;;;;;5032410;28;20457;-69
2023/07/07 07:28:01;;;;;;;56.60;1.90;;;;;;;;;;5033152;28;20461;-69
2023/07/07 07:30:28;;;;;;;56.67;2.20;;;;;;;;;;5032977;28;20461;-69
2023/07/07 07:32:58;;;;;;;56.43;2.17;;;;;;;;;;5033261;28;20445;-69
2023/07/07 07:35:26;;;;;;;56.80;2.07;;;;;;;;;;5032778;28;20449;-69
2023/07/07 07:37:53;;;;;;;56.67;2.20;;;;;;;;;;5032803;28;20502;-69
2023/07/07 07:40:22;;;;;;;58.60;2.20;;;;;;;;;;5032979;28;20456;-69
2023/07/07 07:42:50;;;;;;;57.10;2.30;;;;;;;;;;5032776;28;20485;-69
2023/07/07 07:45:18;;;;;;;56.33;2.30;;;;;;;;;;5032396;28;20449;-69
2023/07/07 07:47:46;;;;;;;57.70;2.80;;;;;;;;;;5032827;28;20841;-69
2023/07/07 07:50:15;;;;;;;56.67;2.10;;;;;;;;;;5032787;28;20456;-69
2023/07/07 07:52:42;;;;;;;56.90;2.53;;;;;;;;;;5032864;28;20442;-69
2023/07/07 07:55:09;;;;;;;57.17;2.50;;;;;;;;;;5032427;28;20824;-69
2023/07/07 07:57:36;;;;;;;56.40;1.97;;;;;;;;;;5032277;28;20469;-69
2023/07/07 08:00:04;;;;;;;56.47;2.13;;;;;;;;;;5032664;28;20961;-69
2023/07/07 08:02:32;;;;;;;57.20;2.70;;;;;;;;;;5032656;28;20997;-67
2023/07/07 08:04:59;;;;;;;59.30;3.00;;;;;;;;;;5032111;28;20457;-67
2023/07/07 08:07:27;;;;;;;56.80;2.00;;;;;;;;;;5031975;28;20469;-67
2023/07/07 08:09:54;;;;;;;56.47;2.03;;;;;;;;;;5032149;28;20544;-68
2023/07/07 08:12:22;;;;;;;57.47;2.20;;;;;;;;;;5032402;28;20456;-68
2023/07/07 08:14:49;;;;;;;56.70;2.20;;;;;;;;;;5032404;28;20817;-67
2023/07/07 08:17:16;;;;;;;56.77;2.10;;;;;;;;;;5032068;28;20475;-68
2023/07/07 08:19:44;;;;;;;56.47;1.93;;;;;;;;;;5032222;28;20445;-68
2023/07/07 08:22:13;;;;;;;56.67;2.00;;;;;;;;;;5031974;28;20507;-68
2023/07/07 08:24:43;;;;;;;57.20;2.37;;;;;;;;;;5031889;28;20460;-68
2023/07/07 08:27:10;;;;;;;56.80;2.60;;;;;;;;;;5032211;28;20798;-68
2023/07/07 08:29:37;;;;;;;56.40;2.10;;;;;;;;;;5031849;28;20445;-68
2023/07/07 08:32:05;;;;;;;56.67;2.23;;;;;;;;;;5031788;28;20460;-67
2023/07/07 08:34:32;;;;;;;57.07;2.40;;;;;;;;;;5031710;28;20957;-67
2023/07/07 08:37:00;;;;;;;56.37;2.10;;;;;;;;;;5031638;28;20469;-67
2023/07/07 08:39:28;;;;;;;56.67;2.20;;;;;;;;;;5032152;28;20449;-67
2023/07/07 08:41:59;;;;;;;55.90;2.00;;;;;;;;;;5031932;28;20485;-68
2023/07/07 08:44:27;;;;;;;56.60;2.40;;;;;;;;;;5031857;28;20449;-68
2023/07/07 08:47:03;;;;;;;56.50;2.00;;;;;;;;;;5031345;28;20472;-68
2023/07/07 08:49:33;;;;;;;56.87;2.27;;;;;;;;;;5031593;28;20791;-68
2023/07/07 08:52:04;;;;;;;56.80;2.57;;;;;;;;;;5031701;28;20472;-68
2023/07/07 08:54:36;;;;;;;57.00;2.53;;;;;;;;;;5031670;28;20449;-68
2023/07/07 08:57:07;;;;;;;58.07;2.17;;;;;;;;;;5031152;28;20472;-68
2023/07/07 08:59:37;;;;;;;57.00;2.60;;;;;;;;;;5031434;28;20453;-68
2023/07/07 09:02:09;;;;;;;58.17;3.10;;;;;;;;;;5031460;28;20481;-69
2023/07/07 09:04:41;;;;;;;57.13;2.53;;;;;;;;;;5031537;28;20457;-68
2023/07/07 09:07:16;;;;;;;56.53;2.20;;;;;;;;;;5031015;28;20476;-68
2023/07/07 09:09:52;;;;;;;57.30;2.50;;;;;;;;;;5031270;28;20461;-68
2023/07/07 09:12:28;;;;;;;57.40;2.43;;;;;;;;;;5031298;28;20449;-68
2023/07/07 09:14:57;;;;;;;58.50;3.37;;;;;;;;;;5031111;28;20449;-68
2023/07/07 09:17:25;;;;;;;56.70;1.70;;;;;;;;;;5030920;28;20501;-68
2023/07/07 09:19:53;;;;;;;56.70;2.10;;;;;;;;;;5031113;28;20455;-68
2023/07/07 09:22:24;;;;;;;57.43;2.40;;;;;;;;;;5031182;28;20489;-68
2023/07/07 09:24:54;;;;;;;55.77;1.60;;;;;;;;;;5031015;28;20449;-68
2023/07/07 09:27:27;;;;;;;57.40;2.63;;;;;;;;;;5030812;28;20568;-68
2023/07/07 09:29:57;;;;;;;56.80;2.13;;;;;;;;;;5031031;28;20450;-70
2023/07/07 09:32:24;;;;;;;56.90;2.20;;;;;;;;;;5031046;28;20456;-68
2023/07/07 09:34:52;;;;;;;56.40;1.80;;;;;;;;;;5030957;28;20452;-68
2023/07/07 09:37:25;;;;;;;56.97;2.40;;;;;;;;;;5030618;28;20473;-68
2023/07/07 09:40:02;;;;;;;57.20;2.43;;;;;;;;;;5031225;28;20441;-68
2023/07/07 09:42:38;;;;;;;56.07;2.20;;;;;;;;;;5034867;28;20487;-68
2023/07/07 09:45:17;;;;;;;57.60;2.10;;;;;;;;;;5034970;28;20895;-69
2023/07/07 09:47:48;;;;;;;56.17;2.33;;;;;;;;;;5035522;28;20461;-68
2023/07/07 09:50:20;;;;;;;57.00;2.40;;;;;;;;;;5034873;28;20810;-68
2023/07/07 09:52:48;;;;;;;56.17;2.20;;;;;;;;;;5035042;28;20452;-68
2023/07/07 09:55:18;;;;;;;56.83;2.00;;;;;;;;;;5034706;28;20445;-68
2023/07/07 09:57:49;;;;;;;56.30;2.17;;;;;;;;;;5034737;28;21040;-68
2023/07/07 10:00:18;;;;;;;59.50;2.70;;;;;;;;;;5035062;28;20879;-69
2023/07/07 10:02:45;;;;;;;57.30;3.10;;;;;;;;;;5034476;28;20480;-68
2023/07/07 10:05:14;;;;;;;57.90;2.30;;;;;;;;;;5034608;28;20817;-68
2023/07/07 10:07:42;;;;;;;57.57;2.20;;;;;;;;;;5034677;28;20468;-68
2023/07/07 10:10:13;;;;;;;56.77;2.37;;;;;;;;;;5034887;28;20452;-68
2023/07/07 10:12:40;;;;;;;56.77;2.40;;;;;;;;;;5034917;28;20452;-69
2023/07/07 10:15:36;;;;;;;56.50;2.57;;;;;;;;;;5034172;28;20540;-68
2023/07/07 10:18:08;;;;;;;57.43;3.03;;;;;;;;;;4976841;28;20473;-68
2023/07/07 10:20:36;;;;;;;56.20;2.23;;;;;;;;;;5034363;28;20440;-69
2023/07/07 10:23:04;;;;;;;56.20;1.97;;;;;;;;;;5034877;28;20543;-68
2023/07/07 10:25:33;;;;;;;59.17;2.73;;;;;;;;;;5034397;28;20921;-68
2023/07/07 10:28:01;;;;;;;56.90;2.00;;;;;;;;;;5034412;28;20836;-69
2023/07/07 10:30:29;;;;;;;55.70;2.20;;;;;;;;;;5034493;28;20449;-69
2023/07/07 10:32:56;;;;;;;58.50;2.57;;;;;;;;;;5033869;28;20488;-69
2023/07/07 10:35:25;;;;;;;56.00;1.80;;;;;;;;;;5033780;28;20449;-69
2023/07/07 10:37:52;;;;;;;56.13;1.90;;;;;;;;;;5033820;28;20479;-67
2023/07/07 10:40:24;;;;;;;57.00;3.03;;;;;;;;;;5033888;28;20449;-67
2023/07/07 10:42:52;;;;;;;56.50;2.17;;;;;;;;;;5034147;28;20481;-67
2023/07/07 10:45:19;;;;;;;55.87;2.00;;;;;;;;;;5033693;28;20526;-67
2023/07/07 10:47:46;;;;;;;55.57;2.03;;;;;;;;;;5033975;28;20469;-67
2023/07/07 10:50:15;;;;;;;55.73;2.00;;;;;;;;;;5033784;28;20462;-67
2023/07/07 10:53:02;;;;;;;55.80;2.03;;;;;;;;;;5033604;28;20437;-67
2023/07/07 10:55:34;;;;;;;56.10;2.70;;;;;;;;;;5033849;28;20449;-68
2023/07/07 10:58:07;;;;;;;56.27;2.53;;;;;;;;;;5033801;28;20465;-68
2023/07/07 11:00:44;;;;;;;55.60;2.20;;;;;;;;;;5033677;28;20449;-68
2023/07/07 11:03:23;;;;;;;56.77;3.23;;;;;;;;;;5033879;28;20481;-70
2023/07/07 11:05:53;;;;;;;56.70;2.90;;;;;;;;;;5033434;28;20796;-68
2023/07/07 11:08:29;;;;;;;55.97;2.27;;;;;;;;;;5033352;28;20484;-68
2023/07/07 11:11:00;;;;;;;55.73;2.23;;;;;;;;;;5033412;28;20453;-68
2023/07/07 11:13:34;;;;;;;55.30;2.30;;;;;;;;;;5033190;28;20938;-68
2023/07/07 11:16:07;;;;;;;55.13;1.67;;;;;;;;;;5032893;28;20972;-68
2023/07/07 11:18:41;;;;;;;55.33;1.77;;;;;;;;;;5033492;28;20441;-68
2023/07/07 11:21:13;;;;;;;55.20;2.13;;;;;;;;;;5033436;28;20456;-68
2023/07/07 11:23:48;;;;;;;55.97;2.97;;;;;;;;;;5033090;28;20481;-68
2023/07/07 11:26:19;;;;;;;55.57;2.27;;;;;;;;;;5032395;28;20465;-68
2023/07/07 11:28:51;;;;;;;55.57;2.47;;;;;;;;;;5033191;28;20468;-68
2023/07/07 11:31:24;;;;;;;55.10;1.87;;;;;;;;;;5033005;28;20453;-68
2023/07/07 11:33:53;;;;;;;55.47;2.30;;;;;;;;;;5032955;28;20448;-68
2023/07/07 11:36:31;;;;;;;54.97;1.60;;;;;;;;;;5032530;28;20473;-68
2023/07/07 11:39:06;;;;;;;56.60;2.40;;;;;;;;;;5033040;28;20953;-68
2023/07/07 11:41:39;;;;;;;55.20;1.77;;;;;;;;;;5033140;28;20440;-68
2023/07/07 11:44:19;;;;;;;55.10;1.83;;;;;;;;;;5032810;28;20492;-69
2023/07/07 11:47:02;;;;;;;57.70;2.20;;;;;;;;;;5032148;28;20472;-68
2023/07/07 11:49:36;;;;;;;55.70;2.30;;;;;;;;;;5032873;28;20457;-68
2023/07/07 11:52:08;;;;;;;55.17;2.17;;;;;;;;;;5033104;28;20449;-68
2023/07/07 11:54:42;;;;;;;55.30;2.40;;;;;;;;;;5032672;28;20453;-68
2023/07/07 11:57:18;;;;;;;56.23;2.97;;;;;;;;;;5032332;28;20468;-68
2023/07/07 12:00:02;;;;;;;55.87;2.70;;;;;;;;;;5032025;28;20976;-68
2023/07/07 12:02:32;;;;;;;55.67;1.93;;;;;;;;;;5032654;28;20522;-68
2023/07/07 12:05:00;;;;;;;55.30;2.47;;;;;;;;;;5031681;28;20445;-68
2023/07/07 12:07:31;;;;;;;56.07;2.40;;;;;;;;;;5032634;28;20508;-68
2023/07/07 12:10:01;;;;;;;55.30;2.43;;;;;;;;;;5031259;28;20972;-68
2023/07/07 12:12:36;;;;;;;55.47;1.93;;;;;;;;;;5032267;28;20445;-68
2023/07/07 12:15:09;;;;;;;55.60;2.53;;;;;;;;;;5031761;28;20452;-68
2023/07/07 12:17:37;;;;;;;55.50;2.30;;;;;;;;;;5032197;28;20559;-68
2023/07/07 12:20:05;;;;;;;55.77;2.73;;;;;;;;;;5032315;28;21161;-68
2023/07/07 12:22:41;;;;;;;56.80;2.43;;;;;;;;;;5032191;28;20485;-68
2023/07/07 12:25:16;;;;;;;57.20;2.90;;;;;;;;;;5031989;28;20448;-68
2023/07/07 12:27:45;;;;;;;55.37;2.20;;;;;;;;;;5032094;28;20469;-68
2023/07/07 12:30:14;;;;;;;55.30;2.50;;;;;;;;;;5031932;28;20449;-68
2023/07/07 12:32:41;;;;;;;55.27;2.90;;;;;;;;;;5031733;28;20441;-68
2023/07/07 12:35:14;;;;;;;56.07;2.60;;;;;;;;;;5031660;28;20449;-69
2023/07/07 12:37:41;;;;;;;56.10;2.20;;;;;;;;;;5031851;28;20469;-69
2023/07/07 12:40:16;;;;;;;56.03;3.23;;;;;;;;;;5032035;28;20449;-69
2023/07/07 12:42:43;;;;;;;55.97;2.90;;;;;;;;;;5031774;28;20481;-69
2023/07/07 12:45:11;;;;;;;55.70;2.60;;;;;;;;;;5031281;28;20485;-69
2023/07/07 12:47:40;;;;;;;55.40;1.80;;;;;;;;;;5031669;28;20487;-69
2023/07/07 12:50:25;;;;;;;55.20;2.40;;;;;;;;;;5031659;28;20488;-67
2023/07/07 12:52:53;;;;;;;57.43;3.10;;;;;;;;;;5031701;28;20864;-67
2023/07/07 12:55:28;;;;;;;55.27;2.17;;;;;;;;;;5031270;28;20782;-67
2023/07/07 12:57:59;;;;;;;55.17;2.27;;;;;;;;;;5031582;28;20841;-67
2023/07/07 13:00:29;;;;;;;54.77;1.90;;;;;;;;;;5031396;28;20449;-67
2023/07/07 13:02:57;;;;;;;54.70;2.23;;;;;;;;;;5031486;28;20508;-67
2023/07/07 13:05:24;;;;;;;54.80;2.10;;;;;;;;;;5031008;28;20449;-67
2023/07/07 13:07:59;;;;;;;55.87;3.33;;;;;;;;;;5031225;28;20841;-67
2023/07/07 13:10:34;;;;;;;55.30;2.20;;;;;;;;;;5031506;28;20449;-67
2023/07/07 13:13:06;;;;;;;55.63;2.23;;;;;;;;;;5031573;28;20478;-67
2023/07/07 13:15:33;;;;;;;55.07;2.60;;;;;;;;;;5030352;28;20445;-68
2023/07/07 13:18:01;;;;;;;55.40;2.40;;;;;;;;;;5031503;28;20476;-68
2023/07/07 13:20:28;;;;;;;55.17;1.90;;;;;;;;;;5031144;28;20457;-68
2023/07/07 13:22:57;;;;;;;55.80;3.13;;;;;;;;;;5031006;28;20488;-68
2023/07/07 13:25:29;;;;;;;55.50;2.20;;;;;;;;;;5030449;28;20464;-68
2023/07/07 13:27:57;;;;;;;56.43;2.70;;;;;;;;;;5031031;28;20465;-68
2023/07/07 13:30:28;;;;;;;57.30;2.40;;;;;;;;;;5030967;28;20516;-68
2023/07/07 13:32:55;;;;;;;55.30;2.13;;;;;;;;;;5031020;28;20441;-68
2023/07/07 13:35:24;;;;;;;55.37;2.20;;;;;;;;;;5031024;28;20535;-68
2023/07/07 13:37:51;;;;;;;55.40;2.63;;;;;;;;;;5031077;28;20469;-68
2023/07/07 13:40:19;;;;;;;54.90;2.07;;;;;;;;;;5031334;28;20445;-68
2023/07/07 13:42:48;;;;;;;55.37;2.20;;;;;;;;;;5030727;28;20453;-69
2023/07/07 13:45:18;;;;;;;56.00;2.87;;;;;;;;;;5030806;28;20453;-68
2023/07/07 13:47:46;;;;;;;54.60;2.13;;;;;;;;;;5030814;28;20485;-68
2023/07/07 13:50:15;;;;;;;54.90;2.17;;;;;;;;;;5031067;28;20452;-68
2023/07/07 13:52:42;;;;;;;55.00;2.30;;;;;;;;;;5030926;28;20457;-68
2023/07/07 13:55:12;;;;;;;55.20;2.17;;;;;;;;;;5031058;28;20452;-68
2023/07/07 13:57:39;;;;;;;55.27;2.27;;;;;;;;;;5030628;28;20473;-68
2023/07/07 14:00:08;;;;;;;56.13;2.83;;;;;;;;;;5030838;28;20449;-68
2023/07/07 14:02:38;;;;;;;56.23;2.17;;;;;;;;;;5030928;28;20449;-68
2023/07/07 14:05:07;;;;;;;56.40;3.20;;;;;;;;;;5030655;28;20485;-68
2023/07/07 14:07:37;;;;;;;55.70;2.27;;;;;;;;;;5030635;28;20473;-68
2023/07/07 14:10:14;;;;;;;55.20;2.33;;;;;;;;;;5030783;28;20449;-68
2023/07/07 14:12:42;;;;;;;55.27;2.60;;;;;;;;;;5030516;28;20449;-68
2023/07/07 14:15:09;;;;;;;56.33;2.57;;;;;;;;;;5030263;28;20446;-68
2023/07/07 14:17:39;;;;;;;55.17;2.60;;;;;;;;;;5030538;28;20476;-68
2023/07/07 14:20:08;;;;;;;56.37;2.93;;;;;;;;;;5031166;28;20802;-68
2023/07/07 14:22:35;;;;;;;56.33;2.87;;;;;;;;;;5030651;28;20453;-68
2023/07/07 14:25:03;;;;;;;55.47;2.03;;;;;;;;;;5030016;28;20495;-68
2023/07/07 14:27:31;;;;;;;55.37;2.60;;;;;;;;;;5032474;28;20469;-68
2023/07/07 14:29:59;;;;;;;57.57;3.03;;;;;;;;;;5034197;28;20449;-68
2023/07/07 14:32:31;;;;;;;57.67;2.37;;;;;;;;;;5033965;28;20448;-68
2023/07/07 14:35:00;;;;;;;54.80;1.80;;;;;;;;;;5033995;28;20468;-68
2023/07/07 14:37:29;;;;;;;55.27;2.63;;;;;;;;;;5033981;28;20469;-68
2023/07/07 14:39:59;;;;;;;55.70;2.80;;;;;;;;;;5034159;28;20444;-68
2023/07/07 14:42:27;;;;;;;55.60;2.40;;;;;;;;;;5034272;28;20797;-68